Time;durP1;ratioP1;P1;durP2;ratioP2;P2;SDS_P1;SDS_P2;PMS_P1;PMS_P2;Temp;Humidity;BMP_temperature;BMP_pressure;BME280_temperature;BME280_humidity;BME280_pressure;Samples;Min_cycle;Max_cycle;Signal;HPM_P1;HPM_P2
2023/07/07 00:01:01;;;;;;;10.20;8.02;;;;;;;20.38;100.00;65125.31;5050848;28;20193;-60
2023/07/07 00:03:27;;;;;;;8.73;7.28;;;;;;;20.35;100.00;65119.41;5050504;28;20213;-61
2023/07/07 00:05:52;;;;;;;9.60;6.95;;;;;;;20.37;100.00;65124.19;5051577;28;20204;-61
2023/07/07 00:08:18;;;;;;;9.57;7.03;;;;;;;20.40;100.00;65125.50;5051925;28;20539;-60
2023/07/07 00:10:43;;;;;;;10.88;7.07;;;;;;;20.39;100.00;65121.28;5051344;28;20213;-58
2023/07/07 00:13:10;;;;;;;15.02;8.07;;;;;;;20.36;100.00;65120.53;5052033;28;20671;-59
2023/07/07 00:15:36;;;;;;;10.32;7.88;;;;;;;20.29;100.00;65112.78;5051412;28;20227;-60
2023/07/07 00:18:01;;;;;;;12.57;7.45;;;;;;;20.28;100.00;65117.34;5051509;28;20635;-58
2023/07/07 00:20:27;;;;;;;11.50;8.20;;;;;;;20.28;100.00;65117.34;5051459;28;20698;-58
2023/07/07 00:22:55;;;;;;;10.48;7.95;;;;;;;20.23;100.00;65106.16;5051055;28;20262;-59
2023/07/07 00:25:21;;;;;;;9.23;7.75;;;;;;;20.24;100.00;65109.84;5051553;28;20283;-58
2023/07/07 00:27:46;;;;;;;12.05;8.38;;;;;;;20.27;100.00;65113.16;5051587;28;20726;-58
2023/07/07 00:30:13;;;;;;;10.98;8.77;;;;;;;20.22;100.00;65107.63;5051205;28;20573;-59
2023/07/07 00:32:38;;;;;;;10.80;8.18;;;;;;;20.20;100.00;65102.84;5050144;28;20224;-58
2023/07/07 00:35:04;;;;;;;8.32;7.43;;;;;;;20.22;100.00;65108.16;5049427;28;20587;-57
2023/07/07 00:37:29;;;;;;;11.60;8.45;;;;;;;20.23;100.00;65108.72;5049726;28;20284;-59
2023/07/07 00:39:55;;;;;;;12.65;7.75;;;;;;;20.40;100.00;65122.41;5050859;28;20193;-59
2023/07/07 00:42:21;;;;;;;10.60;7.72;;;;;;;20.37;100.00;65121.63;5049430;28;20200;-58
2023/07/07 00:45:04;;;;;;;10.32;7.65;;;;;;;20.32;100.00;65119.22;5032999;28;20231;-58
2023/07/07 00:47:31;;;;;;;10.55;7.72;;;;;;;20.17;100.00;65102.06;5049457;28;20709;-59
2023/07/07 00:49:57;;;;;;;11.82;7.65;;;;;;;20.05;100.00;65087.38;5051673;28;20205;-62
2023/07/07 00:52:23;;;;;;;12.00;7.65;;;;;;;19.95;100.00;65078.88;5050943;28;20213;-62
2023/07/07 00:54:48;;;;;;;11.60;8.05;;;;;;;19.94;100.00;65077.78;5050936;28;20205;-62
2023/07/07 00:57:14;;;;;;;9.80;7.85;;;;;;;19.94;100.00;65077.78;5050930;28;20209;-62
2023/07/07 00:59:41;;;;;;;9.65;7.72;;;;;;;19.87;100.00;65069.50;5050976;28;20201;-62
2023/07/07 01:02:24;;;;;;;10.52;8.57;;;;;;;20.11;100.00;65098.56;5050730;28;20291;-62
2023/07/07 01:04:53;;;;;;;9.68;7.57;;;;;;;20.13;100.00;65097.66;5050981;28;20220;-58
2023/07/07 01:07:27;;;;;;;10.07;7.97;;;;;;;20.04;100.00;65088.81;5050799;28;20205;-58
2023/07/07 01:09:53;;;;;;;9.10;7.18;;;;;;;20.03;100.00;65089.72;5050823;28;20205;-58
2023/07/07 01:12:18;;;;;;;9.75;7.32;;;;;;;19.74;100.00;65050.56;5032973;28;20603;-62
2023/07/07 01:14:47;;;;;;;11.27;7.30;;;;;;;19.53;100.00;65035.06;5032953;28;20201;-59
2023/07/07 01:17:46;;;;;;;11.23;7.50;;;;;;;19.57;100.00;65038.94;5050790;28;20209;-59
2023/07/07 01:20:33;;;;;;;9.73;7.20;;;;;;;19.62;100.00;65042.44;5050603;28;20204;-58
2023/07/07 01:23:24;;;;;;;9.20;7.78;;;;;;;19.64;100.00;65047.19;5050879;28;20212;-64
2023/07/07 01:25:55;;;;;;;11.80;8.02;;;;;;;19.62;100.00;65041.88;5050182;28;20289;-63
2023/07/07 01:28:53;;;;;;;11.48;8.07;;;;;;;19.65;100.00;65045.19;5050510;28;20217;-63
2023/07/07 01:31:32;;;;;;;10.15;7.78;;;;;;;19.66;100.00;65044.28;5050425;28;20221;-63
2023/07/07 01:33:59;;;;;;;13.02;7.45;;;;;;;19.67;100.00;65047.97;5032395;28;20225;-60
2023/07/07 01:36:25;;;;;;;8.80;7.25;;;;;;;19.67;100.00;65045.41;5050415;28;20197;-60
2023/07/07 01:38:50;;;;;;;9.35;7.65;;;;;;;19.68;100.00;65046.50;5050750;28;20209;-63
2023/07/07 01:41:40;;;;;;;8.45;7.22;;;;;;;19.61;100.00;65038.22;5050713;28;20205;-59
2023/07/07 01:44:21;;;;;;;9.00;7.95;;;;;;;19.70;100.00;65051.28;5050451;28;20594;-58
2023/07/07 01:47:14;;;;;;;11.57;8.07;;;;;;;19.69;100.00;65047.63;5053365;28;20365;-58
2023/07/07 01:49:50;;;;;;;11.43;7.88;;;;;;;19.64;100.00;65042.09;5053555;28;20287;-60
2023/07/07 01:52:24;;;;;;;9.32;7.45;;;;;;;19.67;100.00;65047.97;5053472;28;20247;-57
2023/07/07 01:54:57;;;;;;;10.82;8.15;;;;;;;19.59;100.00;65036.56;5053629;28;20201;-58
2023/07/07 01:57:25;;;;;;;13.52;7.97;;;;;;;19.51;100.00;65030.31;5053773;28;20781;-60
2023/07/07 01:59:51;;;;;;;9.88;7.78;;;;;;;19.41;100.00;65018.69;5053468;28;20208;-60
2023/07/07 02:02:17;;;;;;;8.80;7.20;;;;;;;19.16;100.00;64994.75;5053502;28;20197;-58
2023/07/07 02:04:43;;;;;;;8.75;7.70;;;;;;;19.38;100.00;65018.50;5035649;28;20216;-58
2023/07/07 02:07:09;;;;;;;11.90;7.55;;;;;;;19.26;100.00;65002.66;5053344;28;20212;-60
2023/07/07 02:09:34;;;;;;;11.55;9.02;;;;;;;19.25;100.00;65002.09;5053186;28;20678;-60
2023/07/07 02:11:59;;;;;;;10.60;8.52;;;;;;;19.35;100.00;65012.06;5053593;28;20221;-60
2023/07/07 02:14:25;;;;;;;10.07;8.65;;;;;;;19.43;100.00;65023.47;5053285;28;20197;-60
2023/07/07 02:16:50;;;;;;;11.07;8.48;;;;;;;19.47;100.00;65025.31;5053012;28;20633;-59
2023/07/07 02:19:16;;;;;;;11.20;8.05;;;;;;;19.46;100.00;65022.22;5052965;28;20562;-60
2023/07/07 02:21:42;;;;;;;10.07;8.77;;;;;;;19.44;100.00;65022.00;5053086;28;20266;-60
2023/07/07 02:24:07;;;;;;;12.25;9.02;;;;;;;19.51;100.00;65027.19;5053166;28;20683;-60
2023/07/07 02:26:34;;;;;;;11.30;8.68;;;;;;;19.55;100.00;65034.72;5053071;28;20221;-60
2023/07/07 02:28:59;;;;;;;15.93;9.50;;;;;;;19.60;100.00;65040.22;5053035;28;20209;-59
2023/07/07 02:31:26;;;;;;;13.05;9.25;;;;;;;19.63;100.00;65043.56;5052754;28;20581;-60
2023/07/07 02:33:52;;;;;;;10.25;9.15;;;;;;;19.56;100.00;65035.81;5053030;28;20281;-62
2023/07/07 02:36:18;;;;;;;10.95;9.00;;;;;;;19.56;100.00;65033.25;5053004;28;20667;-57
2023/07/07 02:38:45;;;;;;;10.80;8.75;;;;;;;19.64;100.00;65044.09;5053728;28;20213;-62
2023/07/07 02:41:10;;;;;;;10.77;8.75;;;;;;;19.70;100.00;65051.28;5053261;28;20194;-59
2023/07/07 02:43:36;;;;;;;11.95;10.00;;;;;;;19.71;100.00;65054.94;5053097;28;20294;-60
2023/07/07 02:46:02;;;;;;;12.30;9.57;;;;;;;19.67;100.00;65047.41;5052565;28;20225;-60
2023/07/07 02:48:27;;;;;;;9.38;8.38;;;;;;;19.74;100.00;65055.69;5053158;28;20729;-60
2023/07/07 02:51:04;;;;;;;11.25;9.63;;;;;;;19.72;100.00;65056.03;5052593;28;20241;-60
2023/07/07 02:53:33;;;;;;;11.10;9.88;;;;;;;19.71;100.00;65051.81;5052741;28;20755;-60
2023/07/07 02:55:59;;;;;;;10.70;8.40;;;;;;;19.84;100.00;65066.72;5052527;28;20713;-60
2023/07/07 02:58:25;;;;;;;10.75;8.63;;;;;;;19.84;100.00;65063.63;5052245;28;20296;-58
2023/07/07 03:00:51;;;;;;;13.60;10.00;;;;;;;19.73;100.00;65054.59;5052473;28;20259;-61
2023/07/07 03:03:18;;;;;;;10.38;9.30;;;;;;;19.77;100.00;65061.56;5052526;28;20213;-59
2023/07/07 03:05:44;;;;;;;11.55;8.63;;;;;;;20.00;100.00;65081.28;5052485;28;20205;-61
2023/07/07 03:08:10;;;;;;;11.77;9.55;;;;;;;20.14;100.00;65098.78;5052755;28;20209;-62
2023/07/07 03:10:37;;;;;;;12.13;9.73;;;;;;;20.31;100.00;65118.13;5052466;28;20210;-62
2023/07/07 03:13:03;;;;;;;12.98;9.50;;;;;;;20.19;100.00;65104.88;5052417;28;20209;-61
2023/07/07 03:15:38;;;;;;;13.75;10.18;;;;;;;20.15;100.00;65097.31;5052510;28;20208;-63
2023/07/07 03:18:04;;;;;;;11.50;9.30;;;;;;;20.07;100.00;65091.59;5052492;28;20311;-58
2023/07/07 03:20:30;;;;;;;10.82;8.68;;;;;;;20.05;100.00;65089.94;5052309;28;20178;-58
2023/07/07 03:22:55;;;;;;;11.73;9.63;;;;;;;19.72;100.00;65055.47;5052023;28;20217;-58
2023/07/07 03:25:21;;;;;;;11.25;8.75;;;;;;;19.60;100.00;65039.66;5052066;28;20679;-58
2023/07/07 03:27:46;;;;;;;16.65;11.23;;;;;;;19.79;100.00;65061.22;5052215;28;20217;-59
2023/07/07 03:30:12;;;;;;;15.15;10.25;;;;;;;19.73;100.00;65054.59;5052141;28;20671;-59
2023/07/07 03:32:37;;;;;;;17.67;10.95;;;;;;;19.94;100.00;65080.34;5052089;28;20683;-58
2023/07/07 03:35:03;;;;;;;10.35;9.13;;;;;;;19.86;100.00;65065.81;5051917;28;20193;-58
2023/07/07 03:37:28;;;;;;;14.13;11.45;;;;;;;19.69;100.00;65052.72;5052022;28;20243;-59
2023/07/07 03:39:54;;;;;;;19.00;11.55;;;;;;;19.99;100.00;65082.75;5050498;28;20739;-58
2023/07/07 03:42:19;;;;;;;13.45;11.20;;;;;;;20.08;100.00;65093.25;5051761;28;20213;-57
2023/07/07 03:44:44;;;;;;;16.77;12.20;;;;;;;20.17;100.00;65102.63;5052209;28;20205;-58
2023/07/07 03:47:10;;;;;;;13.48;9.88;;;;;;;20.18;100.00;65103.72;5051648;28;20284;-57
2023/07/07 03:49:35;;;;;;;16.08;10.48;;;;;;;20.17;100.00;65102.06;5051617;28;20671;-59
2023/07/07 03:52:01;;;;;;;16.75;10.98;;;;;;;20.02;100.00;65083.50;5051690;28;20279;-57
2023/07/07 03:54:26;;;;;;;16.67;11.80;;;;;;;19.93;100.00;65073.56;5051624;28;20209;-58
2023/07/07 03:56:51;;;;;;;15.45;11.80;;;;;;;19.95;100.00;65078.34;5051573;28;20259;-59
2023/07/07 03:59:20;;;;;;;18.05;11.27;;;;;;;19.84;100.00;65069.28;5051627;28;20229;-59
2023/07/07 04:01:47;;;;;;;13.43;9.80;;;;;;;19.88;100.00;65068.03;5051482;28;20208;-59
2023/07/07 04:04:12;;;;;;;11.63;9.40;;;;;;;19.84;100.00;65066.72;5051545;28;20206;-58
2023/07/07 04:06:37;;;;;;;13.63;9.57;;;;;;;19.85;100.00;65067.84;5051433;28;20200;-58
2023/07/07 04:09:03;;;;;;;12.75;9.98;;;;;;;19.67;100.00;65047.97;5050328;28;20221;-58
2023/07/07 04:11:30;;;;;;;11.98;9.48;;;;;;;19.68;100.00;65049.06;5051314;28;20645;-57
2023/07/07 04:14:02;;;;;;;15.73;11.35;;;;;;;19.74;100.00;65055.13;5033720;28;20244;-58
2023/07/07 04:16:27;;;;;;;14.30;10.68;;;;;;;19.73;100.00;65054.03;5051242;28;20209;-58
2023/07/07 04:18:55;;;;;;;21.08;13.93;;;;;;;19.65;100.00;65045.75;5052072;28;20254;-61
2023/07/07 04:21:24;;;;;;;18.35;14.27;;;;;;;19.69;100.00;65052.72;5051208;28;20683;-59
2023/07/07 04:23:51;;;;;;;21.50;14.93;;;;;;;19.72;100.00;65053.47;5051317;28;20270;-58
2023/07/07 04:26:18;;;;;;;23.25;16.48;;;;;;;19.79;100.00;65061.22;5033545;28;20201;-58
2023/07/07 04:28:43;;;;;;;22.40;16.80;;;;;;;19.87;100.00;65070.06;5051140;28;20703;-63
2023/07/07 04:31:11;;;;;;;21.77;17.08;;;;;;;19.94;100.00;65077.22;5051042;28;20262;-63
2023/07/07 04:33:37;;;;;;;20.08;16.75;;;;;;;19.94;100.00;65075.22;5050930;28;20293;-63
2023/07/07 04:36:06;;;;;;;23.23;18.38;;;;;;;20.02;100.00;65086.59;5051507;28;20201;-58
2023/07/07 04:38:32;;;;;;;26.52;17.95;;;;;;;20.03;100.00;65087.72;5051110;28;20308;-58
2023/07/07 04:41:06;;;;;;;21.98;17.83;;;;;;;20.13;100.00;65098.22;5051106;28;20185;-57
2023/07/07 04:43:32;;;;;;;23.90;18.13;;;;;;;20.08;100.00;65095.78;5051063;28;20219;-58
2023/07/07 04:45:59;;;;;;;24.33;18.92;;;;;;;20.14;100.00;65098.78;5051175;28;20347;-58
2023/07/07 04:48:24;;;;;;;24.75;18.27;;;;;;;20.17;100.00;65099.50;5050803;28;20298;-57
2023/07/07 04:50:51;;;;;;;26.25;18.80;;;;;;;20.30;100.00;65113.91;5050845;28;20735;-64
2023/07/07 04:53:16;;;;;;;24.38;20.75;;;;;;;20.37;100.00;65121.63;5050756;28;20217;-62
2023/07/07 04:55:43;;;;;;;21.77;19.48;;;;;;;20.47;100.00;65135.81;5050989;28;20733;-58
2023/07/07 04:58:09;;;;;;;23.40;19.40;;;;;;;20.47;100.00;65132.69;5050871;28;20213;-58
2023/07/07 05:00:34;;;;;;;35.30;29.35;;;;;;;20.82;100.00;65174.50;5050647;28;20280;-58
2023/07/07 05:02:59;;;;;;;23.02;19.92;;;;;;;20.79;100.00;65171.16;5050830;28;20354;-58
2023/07/07 05:05:25;;;;;;;26.33;19.20;;;;;;;20.71;100.00;65164.31;5050651;28;20201;-58
2023/07/07 05:07:50;;;;;;;25.45;19.77;;;;;;;20.75;100.00;65166.19;5050702;28;20215;-60
2023/07/07 05:10:15;;;;;;;23.52;18.85;;;;;;;20.70;100.00;65160.69;5050545;28;20232;-58
2023/07/07 05:12:41;;;;;;;24.67;19.17;;;;;;;20.69;100.00;65157.00;5050562;28;20726;-58
2023/07/07 05:15:07;;;;;;;22.95;18.92;;;;;;;20.72;100.00;65160.31;5050687;28;20193;-58
2023/07/07 05:17:32;;;;;;;24.85;19.42;;;;;;;20.76;100.00;65167.31;5050531;28;20213;-58
2023/07/07 05:19:57;;;;;;;25.23;18.52;;;;;;;20.79;100.00;65171.16;5051351;28;20630;-57
2023/07/07 05:22:23;;;;;;;25.85;19.48;;;;;;;20.87;100.00;65174.88;5054081;28;20205;-57
2023/07/07 05:24:48;;;;;;;26.15;19.58;;;;;;;20.78;100.00;65166.94;5036094;28;20190;-57
2023/07/07 05:27:14;;;;;;;29.98;20.20;;;;;;;20.86;100.00;65178.91;5053944;28;20247;-60
2023/07/07 05:29:40;;;;;;;23.50;18.85;;;;;;;20.91;100.00;65181.88;5053703;28;20302;-57
2023/07/07 05:32:06;;;;;;;25.42;18.50;;;;;;;20.93;100.00;65184.09;5053884;28;20447;-60
2023/07/07 05:34:31;;;;;;;24.77;18.73;;;;;;;21.06;100.00;65197.94;5053703;28;20221;-63
2023/07/07 05:36:57;;;;;;;24.10;18.65;;;;;;;21.10;100.00;65204.91;5053841;28;20197;-64
2023/07/07 05:39:22;;;;;;;23.70;18.38;;;;;;;21.16;100.00;65211.00;5053498;28;20201;-64
2023/07/07 05:41:47;;;;;;;20.83;18.52;;;;;;;21.05;100.00;65199.38;5053526;28;20665;-63
2023/07/07 05:44:13;;;;;;;22.98;19.05;;;;;;;21.11;100.00;65203.44;5053710;28;20595;-62
2023/07/07 05:46:38;;;;;;;25.42;19.05;;;;;;;21.04;100.00;65195.16;5035585;28;20695;-63
2023/07/07 05:49:04;;;;;;;21.40;18.15;;;;;;;21.08;100.00;65200.13;5053031;28;20209;-59
2023/07/07 05:51:29;;;;;;;22.23;18.52;;;;;;;21.33;100.00;65227.78;5051600;28;20703;-58
2023/07/07 05:53:55;;;;;;;21.67;17.83;;;;;;;21.31;100.00;65227.59;5053447;28;20253;-58
2023/07/07 05:56:24;;;;;;;23.45;19.33;;;;;;;21.67;100.00;65267.94;5051807;28;20206;-59
2023/07/07 05:58:50;;;;;;;24.23;17.88;;;;;;;21.43;100.00;65238.28;5053001;28;20275;-59
2023/07/07 06:01:16;;;;;;;26.65;18.48;;;;;;;21.48;100.00;65246.38;5053281;28;20201;-58
2023/07/07 06:03:43;;;;;;;23.58;19.15;;;;;;;21.60;100.00;65260.22;5053318;28;20217;-59
2023/07/07 06:06:09;;;;;;;24.70;19.38;;;;;;;21.42;100.00;65237.19;5053255;28;20208;-58
2023/07/07 06:08:34;;;;;;;26.10;21.00;;;;;;;21.47;100.00;65243.25;5053464;28;20220;-58
2023/07/07 06:11:00;;;;;;;25.92;19.15;;;;;;;21.57;100.00;65253.78;5053094;28;20555;-58
2023/07/07 06:13:27;;;;;;;23.05;19.00;;;;;;;21.63;100.00;65262.97;5053281;28;20735;-59
2023/07/07 06:15:53;;;;;;;23.40;19.63;;;;;;;21.61;100.00;65258.19;5053082;28;20197;-58
2023/07/07 06:18:19;;;;;;;26.05;19.17;;;;;;;21.73;100.00;65274.59;5053215;28;20217;-61
2023/07/07 06:20:49;;;;;;;25.00;18.42;;;;;;;21.83;100.00;65282.00;5052977;28;20723;-63
2023/07/07 06:23:14;;;;;;;22.98;18.65;;;;;;;21.98;100.00;65298.63;5052826;28;20225;-63
2023/07/07 06:25:40;;;;;;;26.20;19.42;;;;;;;21.92;100.00;65292.50;5053167;28;20284;-59
2023/07/07 06:28:05;;;;;;;20.67;17.85;;;;;;;21.82;100.00;65284.00;5053211;28;20675;-58
2023/07/07 06:30:31;;;;;;;19.67;17.58;;;;;;;22.05;100.00;65306.91;5052838;28;20201;-58
2023/07/07 06:32:58;;;;;;;20.13;17.70;;;;;;;22.07;100.00;65308.56;5051912;28;20347;-59
2023/07/07 06:35:27;;;;;;;23.63;18.98;;;;;;;21.92;100.00;65291.97;5051973;28;20200;-58
2023/07/07 06:37:52;;;;;;;25.10;18.38;;;;;;;22.07;100.00;65308.56;5052362;28;20291;-61
2023/07/07 06:40:18;;;;;;;23.42;18.17;;;;;;;21.87;100.00;65286.44;5051877;28;20278;-62
2023/07/07 06:42:43;;;;;;;26.38;17.42;;;;;;;21.65;100.00;65262.63;5052844;28;20213;-62
2023/07/07 06:45:09;;;;;;;20.27;17.15;;;;;;;21.61;100.00;65258.75;5052968;28;20209;-58
2023/07/07 06:47:35;;;;;;;21.90;16.35;;;;;;;21.72;100.00;65270.91;5052746;28;20282;-58
2023/07/07 06:50:01;;;;;;;21.67;16.92;;;;;;;21.70;100.00;65268.72;5034555;28;20213;-57
2023/07/07 06:52:26;;;;;;;20.35;15.52;;;;;;;21.60;100.00;65259.66;5052486;28;20228;-57
2023/07/07 06:54:54;;;;;;;21.08;15.98;;;;;;;21.69;100.00;65267.06;5052638;28;20212;-58
2023/07/07 06:57:21;;;;;;;22.10;15.32;;;;;;;21.82;100.00;65280.88;5052147;28;20288;-58
2023/07/07 06:59:46;;;;;;;20.10;15.40;;;;;;;21.76;100.00;65274.78;5051121;28;20205;-58
2023/07/07 07:02:12;;;;;;;22.17;16.60;;;;;;;21.70;100.00;65268.16;5052061;28;20741;-58
2023/07/07 07:04:41;;;;;;;20.42;16.83;;;;;;;21.82;100.00;65284.00;5052279;28;20206;-62
2023/07/07 07:07:10;;;;;;;19.90;17.77;;;;;;;22.00;100.00;65303.41;5052464;28;20213;-62
2023/07/07 07:09:35;;;;;;;22.30;15.95;;;;;;;22.20;100.00;65323.50;5052004;28;20243;-62
2023/07/07 07:12:00;;;;;;;19.83;16.15;;;;;;;22.21;100.00;65324.06;5051538;28;20221;-57
2023/07/07 07:14:26;;;;;;;19.60;15.48;;;;;;;22.36;100.00;65343.78;5051311;28;20600;-57
2023/07/07 07:16:52;;;;;;;21.25;16.90;;;;;;;22.42;100.00;65347.84;5033419;28;20201;-58
2023/07/07 07:19:17;;;;;;;19.30;15.13;;;;;;;22.51;100.00;65357.81;5052265;28;20291;-60
2023/07/07 07:21:43;;;;;;;19.30;16.38;;;;;;;22.43;100.00;65345.84;5051210;28;20186;-59
2023/07/07 07:24:08;;;;;;;19.15;15.32;;;;;;;22.52;100.00;65360.94;5051237;28;20908;-61
2023/07/07 07:26:33;;;;;;;17.75;15.85;;;;;;;22.36;100.00;65340.66;5050839;28;20190;-62
2023/07/07 07:28:59;;;;;;;17.90;14.73;;;;;;;22.35;100.00;65339.56;5052004;28;20216;-63
2023/07/07 07:31:26;;;;;;;18.77;15.52;;;;;;;22.16;100.00;65319.06;5050914;28;20216;-63
2023/07/07 07:33:54;;;;;;;15.75;14.10;;;;;;;22.12;100.00;65314.09;5051588;28;20221;-61
2023/07/07 07:36:21;;;;;;;16.77;14.55;;;;;;;22.09;100.00;65310.78;5052003;28;20216;-64
2023/07/07 07:38:46;;;;;;;18.17;14.95;;;;;;;21.89;100.00;65289.19;5052135;28;20209;-61
2023/07/07 07:41:12;;;;;;;21.10;15.32;;;;;;;21.84;100.00;65283.09;5050905;28;20582;-62
2023/07/07 07:43:38;;;;;;;18.67;16.67;;;;;;;21.72;100.00;65270.38;5051121;28;20220;-61
2023/07/07 07:46:03;;;;;;;23.38;15.23;;;;;;;21.68;100.00;65263.94;5051779;28;20201;-60
2023/07/07 07:48:28;;;;;;;19.80;15.77;;;;;;;21.84;100.00;65281.09;5051603;28;20209;-58
2023/07/07 07:50:54;;;;;;;20.95;15.82;;;;;;;21.82;100.00;65281.44;5051347;28;20202;-58
2023/07/07 07:53:19;;;;;;;20.08;16.23;;;;;;;21.72;100.00;65273.50;5051428;28;20765;-58
2023/07/07 07:55:45;;;;;;;18.02;14.30;;;;;;;21.73;100.00;65274.03;5051699;28;20207;-57
2023/07/07 07:58:11;;;;;;;18.98;16.05;;;;;;;21.74;100.00;65273.13;5051695;28;20209;-58
2023/07/07 08:00:36;;;;;;;21.05;16.88;;;;;;;21.74;100.00;65275.13;5051577;28;20190;-58
2023/07/07 08:03:02;;;;;;;21.42;15.75;;;;;;;21.73;100.00;65269.44;5063177;22;20224;-58
2023/07/07 08:05:34;;;;;;;21.02;15.05;;;;;;;21.95;100.00;65295.28;5069831;28;20197;-59
2023/07/07 08:08:00;;;;;;;21.65;16.10;;;;;;;22.17;100.00;65319.63;5063849;28;20261;-57
2023/07/07 08:10:25;;;;;;;20.42;16.05;;;;;;;22.31;100.00;65335.13;5050827;28;20358;-58
2023/07/07 08:12:51;;;;;;;22.00;16.80;;;;;;;22.55;100.00;65359.13;5050973;28;20704;-58
2023/07/07 08:15:16;;;;;;;18.35;15.48;;;;;;;22.72;100.00;65380.00;5051309;28;20194;-58
2023/07/07 08:17:41;;;;;;;20.27;16.00;;;;;;;22.75;100.00;65386.44;5050548;28;20829;-59
2023/07/07 08:20:15;;;;;;;19.42;16.52;;;;;;;22.92;100.00;65402.69;5049378;28;20186;-59
2023/07/07 08:22:41;;;;;;;20.90;14.63;;;;;;;22.92;100.00;65402.13;5051242;28;20210;-57
2023/07/07 08:25:06;;;;;;;15.43;13.07;;;;;;;23.10;100.00;65422.06;5050847;28;20893;-60
2023/07/07 08:27:32;;;;;;;16.88;13.32;;;;;;;23.25;100.00;65441.81;5051272;28;20752;-60
2023/07/07 08:29:58;;;;;;;18.40;13.70;;;;;;;23.21;100.00;65434.81;5051033;28;20683;-63
2023/07/07 08:32:24;;;;;;;20.33;15.02;;;;;;;23.35;100.00;65447.75;5050963;28;20296;-60
2023/07/07 08:34:52;;;;;;;16.65;14.00;;;;;;;23.42;100.00;65457.53;5050327;28;20216;-60
2023/07/07 08:37:19;;;;;;;17.17;14.68;;;;;;;23.50;100.00;65468.97;5050688;28;20213;-60
2023/07/07 08:39:45;;;;;;;17.80;13.40;;;;;;;23.59;100.00;65473.25;5050681;28;20189;-60
2023/07/07 08:42:25;;;;;;;20.23;13.48;;;;;;;23.66;100.00;65483.56;5032798;28;20197;-58
2023/07/07 08:44:52;;;;;;;17.50;12.75;;;;;;;23.87;100.00;65506.88;5050890;28;20235;-58
2023/07/07 08:47:38;;;;;;;15.23;13.27;;;;;;;24.02;100.00;65526.06;5050861;28;20285;-61
2023/07/07 08:50:24;;;;;;;19.63;13.30;;;;;;;24.09;100.00;65529.25;5050354;28;20165;-60
2023/07/07 08:53:13;;;;;;;14.98;13.00;;;;;;;23.99;100.00;65520.16;5050396;28;20228;-60
2023/07/07 08:55:43;;;;;;;17.73;12.85;;;;;;;23.95;100.00;65516.28;5049881;28;20209;-57
2023/07/07 08:58:20;;;;;;;19.67;13.27;;;;;;;23.85;100.00;65505.22;5049748;28;20252;-57
2023/07/07 09:00:57;;;;;;;13.82;12.43;;;;;;;24.03;99.50;65524.63;5049339;28;20204;-58
2023/07/07 09:03:53;;;;;;;14.80;12.25;;;;;;;24.35;96.34;65559.53;5049493;28;20217;-62
2023/07/07 09:06:42;;;;;;;14.35;12.43;;;;;;;24.49;97.89;65577.63;5049116;28;20235;-58
2023/07/07 09:09:16;;;;;;;14.60;12.52;;;;;;;24.39;95.36;65561.97;5050431;28;20580;-58
2023/07/07 09:12:14;;;;;;;16.88;13.27;;;;;;;24.62;96.36;65589.50;5050269;28;20216;-58
2023/07/07 09:14:42;;;;;;;16.30;12.23;;;;;;;24.49;95.33;65575.06;5050426;28;20256;-58
2023/07/07 09:17:17;;;;;;;13.18;11.77;;;;;;;24.84;94.16;65613.91;5050471;28;20185;-58
2023/07/07 09:19:45;;;;;;;15.15;11.48;;;;;;;24.66;92.75;65593.94;5049653;28;20286;-58
2023/07/07 09:22:24;;;;;;;14.85;12.25;;;;;;;24.85;92.50;65613.00;5050341;28;20205;-60
2023/07/07 09:24:52;;;;;;;14.20;11.60;;;;;;;24.73;91.74;65602.25;5050507;28;20272;-60
2023/07/07 09:27:30;;;;;;;16.35;13.45;;;;;;;24.78;92.76;65607.25;5049088;28;20202;-61
2023/07/07 09:30:20;;;;;;;13.35;11.77;;;;;;;24.70;91.13;65598.38;5050394;28;20185;-61
2023/07/07 09:32:46;;;;;;;13.57;11.13;;;;;;;24.78;89.75;65604.69;5048820;28;20231;-60
2023/07/07 09:35:13;;;;;;;14.65;10.32;;;;;;;24.94;86.09;65625.56;5050106;28;20210;-61
2023/07/07 09:38:17;;;;;;;18.13;11.73;;;;;;;24.98;86.26;65627.44;5049844;28;20680;-61
2023/07/07 09:41:13;;;;;;;17.70;10.15;;;;;;;24.97;79.30;65628.34;4969427;28;20211;-60
2023/07/07 09:43:59;;;;;;;11.18;9.80;;;;;;;24.79;82.07;65608.91;5049811;28;20358;-62
2023/07/07 09:46:33;;;;;;;13.05;11.10;;;;;;;24.86;84.44;65616.69;5033945;28;20201;-63
2023/07/07 09:49:18;;;;;;;13.93;11.25;;;;;;;25.12;83.83;65644.44;5049809;28;20217;-62
2023/07/07 09:51:58;;;;;;;14.18;11.68;;;;;;;25.38;84.54;65671.25;5049210;28;20285;-61
2023/07/07 09:54:23;;;;;;;13.80;11.60;;;;;;;25.62;82.52;65697.34;5049945;28;20236;-61
2023/07/07 09:56:57;;;;;;;13.00;11.10;;;;;;;25.60;80.58;65692.56;5049321;28;20641;-60
2023/07/07 09:59:28;;;;;;;12.25;10.98;;;;;;;25.58;79.59;65690.34;5049321;28;20296;-61
2023/07/07 10:01:55;;;;;;;12.95;9.73;;;;;;;25.65;81.98;65701.25;5048619;28;20197;-60
2023/07/07 10:04:24;;;;;;;15.88;10.77;;;;;;;25.48;81.74;65684.41;5049678;28;20225;-61
2023/07/07 10:07:06;;;;;;;12.93;10.20;;;;;;;25.19;80.74;65649.63;5049164;28;20194;-62
2023/07/07 10:09:31;;;;;;;14.20;11.20;;;;;;;25.07;80.34;65641.47;5053081;28;20286;-56
2023/07/07 10:11:58;;;;;;;16.40;11.20;;;;;;;25.07;81.71;65642.00;5053137;28;20217;-58
2023/07/07 10:14:28;;;;;;;13.90;10.90;;;;;;;25.04;82.64;65635.53;5052969;28;20228;-58
2023/07/07 10:17:08;;;;;;;13.50;10.32;;;;;;;25.00;82.42;65629.09;5052381;28;20212;-58
2023/07/07 10:19:40;;;;;;;17.35;11.13;;;;;;;25.12;83.08;65644.97;5053063;28;20286;-58
2023/07/07 10:22:07;;;;;;;12.35;11.05;;;;;;;25.19;82.46;65649.63;5051910;28;20675;-57
2023/07/07 10:24:32;;;;;;;15.07;10.88;;;;;;;25.36;82.75;65669.03;5053467;28;20205;-61
2023/07/07 10:26:59;;;;;;;17.98;10.93;;;;;;;25.39;81.95;65671.81;5053175;28;20285;-61
2023/07/07 10:29:31;;;;;;;16.75;11.65;;;;;;;25.35;83.06;65670.50;5052498;28;20201;-61
2023/07/07 10:31:56;;;;;;;14.80;11.48;;;;;;;25.38;81.56;65670.69;5052211;28;20210;-60
2023/07/07 10:34:37;;;;;;;14.73;11.23;;;;;;;25.46;79.84;65679.59;5052446;28;20304;-60
2023/07/07 10:37:19;;;;;;;13.80;10.68;;;;;;;25.58;79.17;65692.91;5052790;28;20271;-61
2023/07/07 10:39:49;;;;;;;14.88;11.30;;;;;;;25.65;81.67;65700.69;5052468;28;20275;-63
2023/07/07 10:42:15;;;;;;;14.77;11.43;;;;;;;26.11;81.15;65751.78;5052844;28;20241;-59
2023/07/07 10:44:41;;;;;;;14.32;10.70;;;;;;;26.07;74.12;65744.78;5052648;28;20707;-58
2023/07/07 10:47:09;;;;;;;12.93;9.85;;;;;;;26.16;75.74;65754.75;5052472;28;20190;-59
2023/07/07 10:49:34;;;;;;;10.90;9.80;;;;;;;26.16;77.03;65754.22;5052481;28;20177;-60
2023/07/07 10:51:59;;;;;;;10.40;9.32;;;;;;;26.18;75.04;65756.97;5052411;28;20275;-58
2023/07/07 10:54:36;;;;;;;12.70;9.55;;;;;;;26.36;74.12;65776.97;5052270;28;20213;-59
2023/07/07 10:57:13;;;;;;;11.57;9.30;;;;;;;26.14;72.00;65755.13;5052826;28;20216;-61
2023/07/07 11:00:01;;;;;;;10.13;9.05;;;;;;;26.37;70.74;65780.13;5052587;28;20283;-62
2023/07/07 11:02:48;;;;;;;13.65;9.85;;;;;;;26.36;73.42;65779.00;5051919;28;20212;-57
2023/07/07 11:05:25;;;;;;;16.58;11.63;;;;;;;26.07;73.49;65749.94;5050773;28;20682;-57
2023/07/07 11:08:13;;;;;;;13.23;10.77;;;;;;;26.23;72.35;65764.56;5052358;28;20305;-61
2023/07/07 11:11:07;;;;;;;11.55;9.40;;;;;;;26.56;70.10;65801.78;5052147;28;20785;-60
2023/07/07 11:13:47;;;;;;;13.75;10.68;;;;;;;26.28;74.39;65773.25;5052141;28;20374;-60
2023/07/07 11:16:36;;;;;;;11.00;9.73;;;;;;;26.09;73.85;65749.56;5052147;28;20188;-60
2023/07/07 11:19:07;;;;;;;12.38;10.57;;;;;;;26.35;74.41;65781.03;5040678;28;20225;-61
2023/07/07 11:21:51;;;;;;;11.38;8.70;;;;;;;26.36;69.48;65779.56;5052258;28;20647;-61
2023/07/07 11:25:10;;;;;;;7.15;6.15;;;;;;;25.67;65.21;65705.50;5051809;28;20326;-61